sensor_id;sensor_type;location;lat;lon;timestamp;P1;durP1;ratioP1;P2;durP2;ratioP2
15833;SDS011;8017;50.812;4.934;2023-04-01T00:02:41;3.07;;;1.50;;
15833;SDS011;8017;50.812;4.934;2023-04-01T00:05:43;4.10;;;1.80;;
15833;SDS011;8017;50.812;4.934;2023-04-01T00:08:47;2.90;;;1.90;;
15833;SDS011;8017;50.812;4.934;2023-04-01T00:11:49;5.87;;;1.90;;
15833;SDS011;8017;50.812;4.934;2023-04-01T00:14:51;2.33;;;1.50;;
15833;SDS011;8017;50.812;4.934;2023-04-01T00:17:53;5.53;;;1.77;;
15833;SDS011;8017;50.812;4.934;2023-04-01T00:20:55;2.73;;;1.80;;
15833;SDS011;8017;50.812;4.934;2023-04-01T00:23:58;4.03;;;2.00;;
15833;SDS011;8017;50.812;4.934;2023-04-01T00:27:00;4.57;;;1.87;;
15833;SDS011;8017;50.812;4.934;2023-04-01T00:30:02;4.00;;;1.93;;
15833;SDS011;8017;50.812;4.934;2023-04-01T00:33:05;5.60;;;2.47;;
15833;SDS011;8017;50.812;4.934;2023-04-01T00:36:08;4.33;;;2.03;;
15833;SDS011;8017;50.812;4.934;2023-04-01T00:39:12;3.90;;;1.97;;
15833;SDS011;8017;50.812;4.934;2023-04-01T00:42:14;4.10;;;2.30;;
15833;SDS011;8017;50.812;4.934;2023-04-01T00:45:26;5.07;;;2.13;;
15833;SDS011;8017;50.812;4.934;2023-04-01T00:48:33;5.03;;;2.40;;
15833;SDS011;8017;50.812;4.934;2023-04-01T00:51:37;5.63;;;2.57;;
15833;SDS011;8017;50.812;4.934;2023-04-01T00:54:44;5.10;;;2.03;;
15833;SDS011;8017;50.812;4.934;2023-04-01T00:57:49;3.77;;;2.17;;
15833;SDS011;8017;50.812;4.934;2023-04-01T01:00:53;4.43;;;2.20;;
15833;SDS011;8017;50.812;4.934;2023-04-01T01:03:57;3.23;;;1.87;;
15833;SDS011;8017;50.812;4.934;2023-04-01T01:07:03;3.97;;;2.53;;
15833;SDS011;8017;50.812;4.934;2023-04-01T01:10:15;4.57;;;2.90;;
15833;SDS011;8017;50.812;4.934;2023-04-01T01:13:21;3.70;;;2.20;;
15833;SDS011;8017;50.812;4.934;2023-04-01T01:16:29;3.77;;;2.10;;
15833;SDS011;8017;50.812;4.934;2023-04-01T01:19:42;3.73;;;1.80;;
15833;SDS011;8017;50.812;4.934;2023-04-01T01:26:57;5.53;;;1.70;;
15833;SDS011;8017;50.812;4.934;2023-04-01T01:30:18;5.53;;;2.00;;
15833;SDS011;8017;50.812;4.934;2023-04-01T01:33:32;4.83;;;1.57;;
15833;SDS011;8017;50.812;4.934;2023-04-01T01:36:52;4.93;;;1.57;;
15833;SDS011;8017;50.812;4.934;2023-04-01T01:39:58;3.50;;;1.33;;
15833;SDS011;8017;50.812;4.934;2023-04-01T01:43:03;1.77;;;1.50;;
15833;SDS011;8017;50.812;4.934;2023-04-01T01:46:09;2.47;;;1.40;;
15833;SDS011;8017;50.812;4.934;2023-04-01T01:49:16;2.70;;;1.50;;
15833;SDS011;8017;50.812;4.934;2023-04-01T01:52:21;2.00;;;1.60;;
15833;SDS011;8017;50.812;4.934;2023-04-01T01:55:26;3.77;;;1.60;;
15833;SDS011;8017;50.812;4.934;2023-04-01T01:58:29;3.60;;;1.63;;
15833;SDS011;8017;50.812;4.934;2023-04-01T02:01:35;3.60;;;1.87;;
15833;SDS011;8017;50.812;4.934;2023-04-01T02:04:42;2.40;;;1.50;;
15833;SDS011;8017;50.812;4.934;2023-04-01T02:07:49;2.33;;;1.70;;
15833;SDS011;8017;50.812;4.934;2023-04-01T02:10:56;2.67;;;1.60;;
15833;SDS011;8017;50.812;4.934;2023-04-01T02:14:03;3.03;;;1.60;;
15833;SDS011;8017;50.812;4.934;2023-04-01T02:17:09;3.73;;;1.70;;
15833;SDS011;8017;50.812;4.934;2023-04-01T02:20:15;3.63;;;1.40;;
15833;SDS011;8017;50.812;4.934;2023-04-01T02:23:20;2.47;;;1.00;;
15833;SDS011;8017;50.812;4.934;2023-04-01T02:26:22;2.50;;;1.17;;
15833;SDS011;8017;50.812;4.934;2023-04-01T02:29:25;3.13;;;1.50;;
15833;SDS011;8017;50.812;4.934;2023-04-01T02:32:28;3.00;;;1.20;;
15833;SDS011;8017;50.812;4.934;2023-04-01T02:35:32;2.07;;;1.50;;
15833;SDS011;8017;50.812;4.934;2023-04-01T02:38:37;3.37;;;2.10;;
15833;SDS011;8017;50.812;4.934;2023-04-01T02:41:40;4.47;;;2.40;;
15833;SDS011;8017;50.812;4.934;2023-04-01T02:44:43;4.43;;;2.17;;
15833;SDS011;8017;50.812;4.934;2023-04-01T02:47:45;3.53;;;2.50;;
15833;SDS011;8017;50.812;4.934;2023-04-01T02:50:47;5.23;;;2.50;;
15833;SDS011;8017;50.812;4.934;2023-04-01T02:53:50;5.10;;;2.90;;
15833;SDS011;8017;50.812;4.934;2023-04-01T02:56:52;4.33;;;2.63;;
15833;SDS011;8017;50.812;4.934;2023-04-01T02:59:54;6.43;;;2.90;;
15833;SDS011;8017;50.812;4.934;2023-04-01T03:02:56;3.63;;;2.20;;
15833;SDS011;8017;50.812;4.934;2023-04-01T03:06:01;5.33;;;2.17;;
15833;SDS011;8017;50.812;4.934;2023-04-01T03:09:07;2.97;;;1.97;;
15833;SDS011;8017;50.812;4.934;2023-04-01T03:12:10;6.63;;;1.90;;
15833;SDS011;8017;50.812;4.934;2023-04-01T03:15:12;6.03;;;2.10;;
15833;SDS011;8017;50.812;4.934;2023-04-01T03:18:15;3.37;;;1.90;;
15833;SDS011;8017;50.812;4.934;2023-04-01T03:21:17;4.70;;;2.03;;
15833;SDS011;8017;50.812;4.934;2023-04-01T03:24:22;2.93;;;1.90;;
15833;SDS011;8017;50.812;4.934;2023-04-01T03:27:24;3.13;;;1.70;;
15833;SDS011;8017;50.812;4.934;2023-04-01T03:30:26;1.87;;;1.50;;
15833;SDS011;8017;50.812;4.934;2023-04-01T03:33:29;2.57;;;1.60;;
15833;SDS011;8017;50.812;4.934;2023-04-01T03:36:31;3.37;;;1.73;;
15833;SDS011;8017;50.812;4.934;2023-04-01T03:39:35;5.77;;;1.90;;
15833;SDS011;8017;50.812;4.934;2023-04-01T03:42:37;3.23;;;2.03;;
15833;SDS011;8017;50.812;4.934;2023-04-01T03:45:42;3.80;;;2.30;;
15833;SDS011;8017;50.812;4.934;2023-04-01T03:48:45;2.13;;;1.90;;
15833;SDS011;8017;50.812;4.934;2023-04-01T03:51:47;3.73;;;1.93;;
15833;SDS011;8017;50.812;4.934;2023-04-01T03:54:50;2.80;;;2.10;;
15833;SDS011;8017;50.812;4.934;2023-04-01T03:57:52;3.50;;;2.50;;
15833;SDS011;8017;50.812;4.934;2023-04-01T04:00:54;4.13;;;2.70;;
15833;SDS011;8017;50.812;4.934;2023-04-01T04:03:56;4.83;;;2.40;;
15833;SDS011;8017;50.812;4.934;2023-04-01T04:06:59;4.00;;;3.17;;
15833;SDS011;8017;50.812;4.934;2023-04-01T04:10:02;6.40;;;3.03;;
15833;SDS011;8017;50.812;4.934;2023-04-01T04:13:05;4.83;;;3.03;;
15833;SDS011;8017;50.812;4.934;2023-04-01T04:16:07;4.40;;;3.40;;
15833;SDS011;8017;50.812;4.934;2023-04-01T04:19:10;9.07;;;3.93;;
15833;SDS011;8017;50.812;4.934;2023-04-01T04:22:12;6.27;;;3.73;;
15833;SDS011;8017;50.812;4.934;2023-04-01T04:25:15;6.03;;;4.33;;
15833;SDS011;8017;50.812;4.934;2023-04-01T04:28:17;7.53;;;5.13;;
15833;SDS011;8017;50.812;4.934;2023-04-01T04:31:19;8.13;;;5.47;;
15833;SDS011;8017;50.812;4.934;2023-04-01T04:34:22;9.10;;;5.87;;
15833;SDS011;8017;50.812;4.934;2023-04-01T04:37:24;7.30;;;5.27;;
15833;SDS011;8017;50.812;4.934;2023-04-01T04:40:28;9.23;;;5.97;;
15833;SDS011;8017;50.812;4.934;2023-04-01T04:43:30;9.63;;;5.40;;
15833;SDS011;8017;50.812;4.934;2023-04-01T04:46:32;12.20;;;6.10;;
15833;SDS011;8017;50.812;4.934;2023-04-01T04:49:33;7.27;;;5.30;;
15833;SDS011;8017;50.812;4.934;2023-04-01T04:52:35;9.33;;;5.33;;
15833;SDS011;8017;50.812;4.934;2023-04-01T04:55:42;6.07;;;4.77;;
15833;SDS011;8017;50.812;4.934;2023-04-01T04:58:45;10.27;;;5.40;;
15833;SDS011;8017;50.812;4.934;2023-04-01T05:01:47;13.23;;;5.63;;
15833;SDS011;8017;50.812;4.934;2023-04-01T05:04:49;7.10;;;5.13;;
15833;SDS011;8017;50.812;4.934;2023-04-01T05:07:51;8.17;;;5.13;;
15833;SDS011;8017;50.812;4.934;2023-04-01T05:10:54;6.00;;;4.43;;
15833;SDS011;8017;50.812;4.934;2023-04-01T05:13:56;7.43;;;5.30;;
15833;SDS011;8017;50.812;4.934;2023-04-01T05:16:58;7.27;;;4.13;;
15833;SDS011;8017;50.812;4.934;2023-04-01T05:20:00;7.63;;;4.73;;
15833;SDS011;8017;50.812;4.934;2023-04-01T05:23:02;8.87;;;4.60;;
15833;SDS011;8017;50.812;4.934;2023-04-01T05:26:06;6.43;;;3.97;;
15833;SDS011;8017;50.812;4.934;2023-04-01T05:29:09;3.93;;;3.47;;
15833;SDS011;8017;50.812;4.934;2023-04-01T05:32:11;4.73;;;3.60;;
15833;SDS011;8017;50.812;4.934;2023-04-01T05:35:13;4.97;;;3.40;;
15833;SDS011;8017;50.812;4.934;2023-04-01T05:38:15;4.80;;;3.23;;
15833;SDS011;8017;50.812;4.934;2023-04-01T05:41:19;3.83;;;3.10;;
15833;SDS011;8017;50.812;4.934;2023-04-01T05:44:20;5.53;;;3.50;;
15833;SDS011;8017;50.812;4.934;2023-04-01T05:47:22;5.30;;;3.70;;
15833;SDS011;8017;50.812;4.934;2023-04-01T05:50:24;4.30;;;3.30;;
15833;SDS011;8017;50.812;4.934;2023-04-01T05:53:26;4.57;;;2.93;;
15833;SDS011;8017;50.812;4.934;2023-04-01T05:56:29;6.83;;;3.30;;
15833;SDS011;8017;50.812;4.934;2023-04-01T05:59:31;4.00;;;2.90;;
15833;SDS011;8017;50.812;4.934;2023-04-01T06:02:34;4.70;;;3.03;;
15833;SDS011;8017;50.812;4.934;2023-04-01T06:05:38;4.27;;;3.37;;
15833;SDS011;8017;50.812;4.934;2023-04-01T06:08:42;5.53;;;3.40;;
15833;SDS011;8017;50.812;4.934;2023-04-01T06:11:51;4.17;;;3.70;;
15833;SDS011;8017;50.812;4.934;2023-04-01T06:15:14;6.37;;;4.33;;
15833;SDS011;8017;50.812;4.934;2023-04-01T06:18:38;4.30;;;3.47;;
15833;SDS011;8017;50.812;4.934;2023-04-01T06:22:04;3.87;;;3.40;;
15833;SDS011;8017;50.812;4.934;2023-04-01T06:25:29;6.63;;;3.73;;
15833;SDS011;8017;50.812;4.934;2023-04-01T06:28:58;5.77;;;3.77;;
15833;SDS011;8017;50.812;4.934;2023-04-01T06:32:36;6.27;;;4.00;;
15833;SDS011;8017;50.812;4.934;2023-04-01T06:39:11;6.07;;;4.00;;
15833;SDS011;8017;50.812;4.934;2023-04-01T06:42:46;6.53;;;4.50;;
15833;SDS011;8017;50.812;4.934;2023-04-01T06:46:04;7.13;;;5.20;;
15833;SDS011;8017;50.812;4.934;2023-04-01T06:52:39;8.43;;;5.53;;
15833;SDS011;8017;50.812;4.934;2023-04-01T06:55:51;7.47;;;5.10;;
15833;SDS011;8017;50.812;4.934;2023-04-01T06:58:57;7.53;;;5.53;;
15833;SDS011;8017;50.812;4.934;2023-04-01T07:02:05;6.07;;;4.63;;
15833;SDS011;8017;50.812;4.934;2023-04-01T07:05:20;8.80;;;5.53;;
15833;SDS011;8017;50.812;4.934;2023-04-01T07:08:24;5.13;;;3.97;;
15833;SDS011;8017;50.812;4.934;2023-04-01T07:11:31;8.83;;;4.67;;
15833;SDS011;8017;50.812;4.934;2023-04-01T07:14:36;5.13;;;4.23;;
15833;SDS011;8017;50.812;4.934;2023-04-01T07:17:42;4.67;;;4.00;;
15833;SDS011;8017;50.812;4.934;2023-04-01T07:20:46;6.40;;;3.90;;
15833;SDS011;8017;50.812;4.934;2023-04-01T07:23:50;5.80;;;4.50;;
15833;SDS011;8017;50.812;4.934;2023-04-01T07:26:53;7.60;;;4.33;;
15833;SDS011;8017;50.812;4.934;2023-04-01T07:29:56;6.13;;;4.57;;
15833;SDS011;8017;50.812;4.934;2023-04-01T07:33:02;6.27;;;4.23;;
15833;SDS011;8017;50.812;4.934;2023-04-01T07:36:12;6.60;;;5.03;;
15833;SDS011;8017;50.812;4.934;2023-04-01T07:39:24;7.77;;;4.57;;
15833;SDS011;8017;50.812;4.934;2023-04-01T07:42:34;5.97;;;4.23;;
15833;SDS011;8017;50.812;4.934;2023-04-01T07:45:43;7.90;;;5.00;;
15833;SDS011;8017;50.812;4.934;2023-04-01T07:48:53;6.20;;;4.70;;
15833;SDS011;8017;50.812;4.934;2023-04-01T07:52:00;5.93;;;4.63;;
15833;SDS011;8017;50.812;4.934;2023-04-01T07:55:08;7.80;;;4.37;;
15833;SDS011;8017;50.812;4.934;2023-04-01T07:58:17;8.77;;;4.80;;
15833;SDS011;8017;50.812;4.934;2023-04-01T08:01:27;5.13;;;4.17;;
15833;SDS011;8017;50.812;4.934;2023-04-01T08:04:39;5.77;;;3.53;;
15833;SDS011;8017;50.812;4.934;2023-04-01T08:07:50;4.37;;;2.90;;
15833;SDS011;8017;50.812;4.934;2023-04-01T08:11:00;3.30;;;2.80;;
15833;SDS011;8017;50.812;4.934;2023-04-01T08:14:11;3.00;;;2.10;;
15833;SDS011;8017;50.812;4.934;2023-04-01T08:17:20;2.73;;;1.50;;
15833;SDS011;8017;50.812;4.934;2023-04-01T08:20:32;2.90;;;1.63;;
15833;SDS011;8017;50.812;4.934;2023-04-01T08:23:40;2.10;;;1.60;;
15833;SDS011;8017;50.812;4.934;2023-04-01T08:26:46;2.27;;;1.87;;
15833;SDS011;8017;50.812;4.934;2023-04-01T08:29:55;1.67;;;1.00;;
15833;SDS011;8017;50.812;4.934;2023-04-01T08:33:01;2.03;;;1.50;;
15833;SDS011;8017;50.812;4.934;2023-04-01T08:36:13;2.13;;;1.87;;
15833;SDS011;8017;50.812;4.934;2023-04-01T08:39:18;3.23;;;2.10;;
15833;SDS011;8017;50.812;4.934;2023-04-01T08:42:43;2.17;;;1.97;;
15833;SDS011;8017;50.812;4.934;2023-04-01T08:46:02;1.63;;;1.53;;
15833;SDS011;8017;50.812;4.934;2023-04-01T08:49:17;2.03;;;1.40;;
15833;SDS011;8017;50.812;4.934;2023-04-01T08:52:38;2.43;;;1.60;;
15833;SDS011;8017;50.812;4.934;2023-04-01T08:55:51;1.30;;;1.20;;
15833;SDS011;8017;50.812;4.934;2023-04-01T08:59:10;1.30;;;1.17;;
15833;SDS011;8017;50.812;4.934;2023-04-01T09:02:25;1.17;;;1.00;;
15833;SDS011;8017;50.812;4.934;2023-04-01T09:09:39;1.80;;;1.00;;
15833;SDS011;8017;50.812;4.934;2023-04-01T09:13:05;1.37;;;1.13;;
15833;SDS011;8017;50.812;4.934;2023-04-01T09:16:30;2.70;;;1.07;;
15833;SDS011;8017;50.812;4.934;2023-04-01T09:19:55;1.73;;;1.07;;
15833;SDS011;8017;50.812;4.934;2023-04-01T09:37:18;1.77;;;0.87;;
15833;SDS011;8017;50.812;4.934;2023-04-01T09:40:23;0.87;;;0.80;;
15833;SDS011;8017;50.812;4.934;2023-04-01T09:43:42;0.80;;;0.73;;
15833;SDS011;8017;50.812;4.934;2023-04-01T09:47:01;1.13;;;0.87;;
15833;SDS011;8017;50.812;4.934;2023-04-01T09:50:23;0.50;;;0.50;;
15833;SDS011;8017;50.812;4.934;2023-04-01T09:53:40;0.73;;;0.60;;
15833;SDS011;8017;50.812;4.934;2023-04-01T09:57:08;1.57;;;1.03;;
15833;SDS011;8017;50.812;4.934;2023-04-01T10:00:31;0.60;;;0.60;;
15833;SDS011;8017;50.812;4.934;2023-04-01T10:07:25;1.10;;;0.70;;
15833;SDS011;8017;50.812;4.934;2023-04-01T10:14:37;0.90;;;0.90;;
15833;SDS011;8017;50.812;4.934;2023-04-01T10:18:01;0.90;;;0.90;;
15833;SDS011;8017;50.812;4.934;2023-04-01T10:25:30;1.00;;;1.00;;
15833;SDS011;8017;50.812;4.934;2023-04-01T10:29:02;1.40;;;1.30;;
15833;SDS011;8017;50.812;4.934;2023-04-01T10:36:35;1.47;;;1.30;;
15833;SDS011;8017;50.812;4.934;2023-04-01T10:54:41;3.23;;;1.80;;
15833;SDS011;8017;50.812;4.934;2023-04-01T10:57:59;1.50;;;1.40;;
15833;SDS011;8017;50.812;4.934;2023-04-01T11:12:30;1.20;;;1.10;;
15833;SDS011;8017;50.812;4.934;2023-04-01T11:23:30;1.87;;;1.50;;
15833;SDS011;8017;50.812;4.934;2023-04-01T11:26:44;1.00;;;0.90;;
15833;SDS011;8017;50.812;4.934;2023-04-01T11:30:07;1.83;;;1.17;;
15833;SDS011;8017;50.812;4.934;2023-04-01T11:33:18;1.73;;;1.20;;
15833;SDS011;8017;50.812;4.934;2023-04-01T11:36:29;1.70;;;0.90;;
15833;SDS011;8017;50.812;4.934;2023-04-01T11:39:42;1.67;;;1.17;;
15833;SDS011;8017;50.812;4.934;2023-04-01T11:42:55;1.20;;;1.10;;
15833;SDS011;8017;50.812;4.934;2023-04-01T11:46:05;1.00;;;0.80;;
15833;SDS011;8017;50.812;4.934;2023-04-01T11:49:17;0.60;;;0.50;;
15833;SDS011;8017;50.812;4.934;2023-04-01T11:52:37;0.60;;;0.60;;
15833;SDS011;8017;50.812;4.934;2023-04-01T11:56:06;0.70;;;0.70;;
15833;SDS011;8017;50.812;4.934;2023-04-01T11:59:26;0.83;;;0.70;;
15833;SDS011;8017;50.812;4.934;2023-04-01T12:02:50;0.70;;;0.60;;
15833;SDS011;8017;50.812;4.934;2023-04-01T12:06:05;1.27;;;0.70;;
15833;SDS011;8017;50.812;4.934;2023-04-01T12:09:13;0.77;;;0.70;;
15833;SDS011;8017;50.812;4.934;2023-04-01T12:12:25;0.70;;;0.50;;
15833;SDS011;8017;50.812;4.934;2023-04-01T12:15:40;1.00;;;0.70;;
15833;SDS011;8017;50.812;4.934;2023-04-01T12:18:57;0.70;;;0.67;;
15833;SDS011;8017;50.812;4.934;2023-04-01T12:22:09;0.70;;;0.70;;
15833;SDS011;8017;50.812;4.934;2023-04-01T12:25:27;1.77;;;0.87;;
15833;SDS011;8017;50.812;4.934;2023-04-01T12:28:46;0.67;;;0.67;;
15833;SDS011;8017;50.812;4.934;2023-04-01T12:32:01;0.50;;;0.50;;
15833;SDS011;8017;50.812;4.934;2023-04-01T12:35:17;0.90;;;0.80;;
15833;SDS011;8017;50.812;4.934;2023-04-01T12:38:25;2.30;;;1.00;;
15833;SDS011;8017;50.812;4.934;2023-04-01T12:41:38;0.83;;;0.83;;
15833;SDS011;8017;50.812;4.934;2023-04-01T12:44:50;1.23;;;1.03;;
15833;SDS011;8017;50.812;4.934;2023-04-01T12:48:06;1.60;;;0.80;;
15833;SDS011;8017;50.812;4.934;2023-04-01T12:51:30;2.17;;;1.10;;
15833;SDS011;8017;50.812;4.934;2023-04-01T13:02:20;2.40;;;1.20;;
15833;SDS011;8017;50.812;4.934;2023-04-01T13:05:44;1.47;;;1.30;;
15833;SDS011;8017;50.812;4.934;2023-04-01T13:09:14;1.87;;;1.40;;
15833;SDS011;8017;50.812;4.934;2023-04-01T13:12:36;1.30;;;1.20;;
15833;SDS011;8017;50.812;4.934;2023-04-01T13:15:59;2.23;;;1.40;;
15833;SDS011;8017;50.812;4.934;2023-04-01T13:19:09;1.37;;;0.93;;
15833;SDS011;8017;50.812;4.934;2023-04-01T13:22:19;1.67;;;1.30;;
15833;SDS011;8017;50.812;4.934;2023-04-01T13:25:29;1.37;;;1.20;;
15833;SDS011;8017;50.812;4.934;2023-04-01T13:28:40;1.93;;;1.40;;
15833;SDS011;8017;50.812;4.934;2023-04-01T13:31:51;3.07;;;1.60;;
15833;SDS011;8017;50.812;4.934;2023-04-01T13:35:04;1.90;;;1.73;;
15833;SDS011;8017;50.812;4.934;2023-04-01T13:38:31;2.73;;;1.40;;
15833;SDS011;8017;50.812;4.934;2023-04-01T13:41:55;2.90;;;1.60;;
15833;SDS011;8017;50.812;4.934;2023-04-01T13:45:12;2.00;;;1.63;;
15833;SDS011;8017;50.812;4.934;2023-04-01T13:52:03;3.20;;;1.80;;
15833;SDS011;8017;50.812;4.934;2023-04-01T13:55:30;1.60;;;1.50;;
15833;SDS011;8017;50.812;4.934;2023-04-01T13:58:51;3.00;;;1.70;;
15833;SDS011;8017;50.812;4.934;2023-04-01T14:02:16;1.67;;;1.40;;
15833;SDS011;8017;50.812;4.934;2023-04-01T14:09:24;1.60;;;1.40;;
15833;SDS011;8017;50.812;4.934;2023-04-01T14:12:44;1.70;;;1.60;;
15833;SDS011;8017;50.812;4.934;2023-04-01T14:15:56;2.93;;;1.63;;
15833;SDS011;8017;50.812;4.934;2023-04-01T14:19:16;1.83;;;1.30;;
15833;SDS011;8017;50.812;4.934;2023-04-01T14:22:26;1.00;;;1.00;;
15833;SDS011;8017;50.812;4.934;2023-04-01T14:25:39;1.40;;;1.00;;
15833;SDS011;8017;50.812;4.934;2023-04-01T14:29:01;1.40;;;1.10;;
15833;SDS011;8017;50.812;4.934;2023-04-01T14:32:13;2.60;;;1.27;;
15833;SDS011;8017;50.812;4.934;2023-04-01T14:35:27;0.70;;;0.70;;
15833;SDS011;8017;50.812;4.934;2023-04-01T14:38:47;1.23;;;0.70;;
15833;SDS011;8017;50.812;4.934;2023-04-01T14:42:01;0.70;;;0.70;;
15833;SDS011;8017;50.812;4.934;2023-04-01T14:45:24;1.00;;;0.90;;
15833;SDS011;8017;50.812;4.934;2023-04-01T14:48:50;1.00;;;1.00;;
15833;SDS011;8017;50.812;4.934;2023-04-01T14:51:55;1.47;;;1.37;;
15833;SDS011;8017;50.812;4.934;2023-04-01T14:55:15;1.40;;;1.30;;
15833;SDS011;8017;50.812;4.934;2023-04-01T14:58:22;1.60;;;1.50;;
15833;SDS011;8017;50.812;4.934;2023-04-01T15:01:31;2.27;;;1.90;;
15833;SDS011;8017;50.812;4.934;2023-04-01T15:04:57;2.27;;;2.00;;
15833;SDS011;8017;50.812;4.934;2023-04-01T15:08:08;1.87;;;1.77;;
15833;SDS011;8017;50.812;4.934;2023-04-01T15:11:25;1.90;;;1.63;;
15833;SDS011;8017;50.812;4.934;2023-04-01T15:14:41;1.90;;;1.63;;
15833;SDS011;8017;50.812;4.934;2023-04-01T15:18:07;1.50;;;1.40;;
15833;SDS011;8017;50.812;4.934;2023-04-01T15:21:15;1.50;;;1.40;;
15833;SDS011;8017;50.812;4.934;2023-04-01T15:24:24;3.47;;;1.97;;
15833;SDS011;8017;50.812;4.934;2023-04-01T15:27:30;1.73;;;1.60;;
15833;SDS011;8017;50.812;4.934;2023-04-01T15:30:45;2.13;;;1.60;;
15833;SDS011;8017;50.812;4.934;2023-04-01T15:34:07;1.97;;;1.60;;
15833;SDS011;8017;50.812;4.934;2023-04-01T15:37:22;1.60;;;1.50;;
15833;SDS011;8017;50.812;4.934;2023-04-01T15:40:36;1.80;;;1.50;;
15833;SDS011;8017;50.812;4.934;2023-04-01T15:43:44;1.10;;;1.10;;
15833;SDS011;8017;50.812;4.934;2023-04-01T15:46:48;1.40;;;1.13;;
15833;SDS011;8017;50.812;4.934;2023-04-01T15:49:52;0.80;;;0.80;;
15833;SDS011;8017;50.812;4.934;2023-04-01T15:53:06;1.30;;;0.93;;
15833;SDS011;8017;50.812;4.934;2023-04-01T15:56:25;0.90;;;0.90;;
15833;SDS011;8017;50.812;4.934;2023-04-01T16:03:18;1.13;;;1.00;;
15833;SDS011;8017;50.812;4.934;2023-04-01T16:06:35;1.00;;;0.90;;
15833;SDS011;8017;50.812;4.934;2023-04-01T16:10:06;0.97;;;0.80;;
15833;SDS011;8017;50.812;4.934;2023-04-01T16:13:30;3.37;;;2.73;;
15833;SDS011;8017;50.812;4.934;2023-04-01T16:16:48;1.10;;;1.00;;
15833;SDS011;8017;50.812;4.934;2023-04-01T16:20:02;1.00;;;1.00;;
15833;SDS011;8017;50.812;4.934;2023-04-01T16:23:18;1.83;;;1.40;;
15833;SDS011;8017;50.812;4.934;2023-04-01T16:26:28;1.20;;;1.10;;
15833;SDS011;8017;50.812;4.934;2023-04-01T16:29:38;1.37;;;1.20;;
15833;SDS011;8017;50.812;4.934;2023-04-01T16:32:46;1.40;;;1.30;;
15833;SDS011;8017;50.812;4.934;2023-04-01T16:35:54;1.50;;;1.40;;
15833;SDS011;8017;50.812;4.934;2023-04-01T16:42:34;1.57;;;1.43;;
15833;SDS011;8017;50.812;4.934;2023-04-01T16:45:42;1.17;;;1.07;;
15833;SDS011;8017;50.812;4.934;2023-04-01T16:48:52;1.13;;;1.13;;
15833;SDS011;8017;50.812;4.934;2023-04-01T16:52:12;1.37;;;1.20;;
15833;SDS011;8017;50.812;4.934;2023-04-01T16:55:16;3.70;;;1.10;;
15833;SDS011;8017;50.812;4.934;2023-04-01T16:58:23;2.13;;;1.33;;
15833;SDS011;8017;50.812;4.934;2023-04-01T17:01:29;3.30;;;1.20;;
15833;SDS011;8017;50.812;4.934;2023-04-01T17:04:37;2.37;;;1.40;;
15833;SDS011;8017;50.812;4.934;2023-04-01T17:07:46;2.20;;;1.70;;
15833;SDS011;8017;50.812;4.934;2023-04-01T17:10:59;2.90;;;1.43;;
15833;SDS011;8017;50.812;4.934;2023-04-01T17:14:12;2.80;;;1.50;;
15833;SDS011;8017;50.812;4.934;2023-04-01T17:17:27;1.20;;;1.10;;
15833;SDS011;8017;50.812;4.934;2023-04-01T17:20:40;1.77;;;1.07;;
15833;SDS011;8017;50.812;4.934;2023-04-01T17:23:45;1.43;;;1.20;;
15833;SDS011;8017;50.812;4.934;2023-04-01T17:26:52;2.60;;;1.40;;
15833;SDS011;8017;50.812;4.934;2023-04-01T17:30:19;2.07;;;1.50;;
15833;SDS011;8017;50.812;4.934;2023-04-01T17:33:31;1.40;;;1.30;;
15833;SDS011;8017;50.812;4.934;2023-04-01T17:36:51;1.83;;;1.57;;
15833;SDS011;8017;50.812;4.934;2023-04-01T17:40:08;2.97;;;1.43;;
15833;SDS011;8017;50.812;4.934;2023-04-01T17:43:38;2.27;;;1.47;;
15833;SDS011;8017;50.812;4.934;2023-04-01T17:46:57;2.33;;;1.90;;
15833;SDS011;8017;50.812;4.934;2023-04-01T17:50:10;2.13;;;1.90;;
15833;SDS011;8017;50.812;4.934;2023-04-01T17:53:26;2.27;;;2.07;;
15833;SDS011;8017;50.812;4.934;2023-04-01T17:56:34;3.77;;;2.60;;
15833;SDS011;8017;50.812;4.934;2023-04-01T17:59:48;2.50;;;2.30;;
15833;SDS011;8017;50.812;4.934;2023-04-01T18:03:01;4.23;;;2.93;;
15833;SDS011;8017;50.812;4.934;2023-04-01T18:06:14;3.37;;;2.90;;
15833;SDS011;8017;50.812;4.934;2023-04-01T18:09:22;3.20;;;2.90;;
15833;SDS011;8017;50.812;4.934;2023-04-01T18:12:33;3.57;;;3.20;;
15833;SDS011;8017;50.812;4.934;2023-04-01T18:15:46;3.67;;;3.10;;
15833;SDS011;8017;50.812;4.934;2023-04-01T18:19:00;3.63;;;3.30;;
15833;SDS011;8017;50.812;4.934;2023-04-01T18:22:15;3.20;;;2.90;;
15833;SDS011;8017;50.812;4.934;2023-04-01T18:25:22;3.80;;;3.50;;
15833;SDS011;8017;50.812;4.934;2023-04-01T18:28:32;5.67;;;3.93;;
15833;SDS011;8017;50.812;4.934;2023-04-01T18:31:40;4.47;;;4.07;;
15833;SDS011;8017;50.812;4.934;2023-04-01T18:34:52;5.17;;;4.67;;
15833;SDS011;8017;50.812;4.934;2023-04-01T18:38:00;5.27;;;4.77;;
15833;SDS011;8017;50.812;4.934;2023-04-01T18:41:12;5.40;;;4.83;;
15833;SDS011;8017;50.812;4.934;2023-04-01T18:44:23;6.50;;;5.80;;
15833;SDS011;8017;50.812;4.934;2023-04-01T18:47:32;5.67;;;5.17;;
15833;SDS011;8017;50.812;4.934;2023-04-01T18:50:47;5.27;;;4.77;;
15833;SDS011;8017;50.812;4.934;2023-04-01T18:53:54;6.00;;;5.50;;
15833;SDS011;8017;50.812;4.934;2023-04-01T18:57:00;6.60;;;5.97;;
15833;SDS011;8017;50.812;4.934;2023-04-01T19:00:08;6.13;;;5.63;;
15833;SDS011;8017;50.812;4.934;2023-04-01T19:03:18;6.23;;;5.73;;
15833;SDS011;8017;50.812;4.934;2023-04-01T19:06:26;7.07;;;6.47;;
15833;SDS011;8017;50.812;4.934;2023-04-01T19:09:32;7.90;;;6.13;;
15833;SDS011;8017;50.812;4.934;2023-04-01T19:12:48;7.57;;;6.77;;
15833;SDS011;8017;50.812;4.934;2023-04-01T19:16:00;8.10;;;7.13;;
15833;SDS011;8017;50.812;4.934;2023-04-01T19:22:51;8.10;;;7.30;;
15833;SDS011;8017;50.812;4.934;2023-04-01T19:26:09;8.37;;;7.57;;
15833;SDS011;8017;50.812;4.934;2023-04-01T19:29:18;9.10;;;8.40;;
15833;SDS011;8017;50.812;4.934;2023-04-01T19:32:31;8.83;;;7.97;;
15833;SDS011;8017;50.812;4.934;2023-04-01T19:35:42;10.10;;;9.10;;
15833;SDS011;8017;50.812;4.934;2023-04-01T19:38:55;9.77;;;8.97;;
15833;SDS011;8017;50.812;4.934;2023-04-01T19:42:03;10.30;;;9.40;;
15833;SDS011;8017;50.812;4.934;2023-04-01T19:45:16;9.97;;;8.97;;
15833;SDS011;8017;50.812;4.934;2023-04-01T19:48:30;10.37;;;9.03;;
15833;SDS011;8017;50.812;4.934;2023-04-01T19:51:43;9.00;;;8.10;;
15833;SDS011;8017;50.812;4.934;2023-04-01T19:54:55;8.03;;;7.13;;
15833;SDS011;8017;50.812;4.934;2023-04-01T19:58:02;8.53;;;7.73;;
15833;SDS011;8017;50.812;4.934;2023-04-01T20:01:11;11.00;;;8.03;;
15833;SDS011;8017;50.812;4.934;2023-04-01T20:04:20;9.83;;;8.10;;
15833;SDS011;8017;50.812;4.934;2023-04-01T20:07:30;9.07;;;8.17;;
15833;SDS011;8017;50.812;4.934;2023-04-01T20:10:38;8.97;;;8.07;;
15833;SDS011;8017;50.812;4.934;2023-04-01T20:13:52;9.63;;;8.30;;
15833;SDS011;8017;50.812;4.934;2023-04-01T20:17:07;10.17;;;8.50;;
15833;SDS011;8017;50.812;4.934;2023-04-01T20:20:19;8.53;;;7.73;;
15833;SDS011;8017;50.812;4.934;2023-04-01T20:23:38;8.80;;;7.90;;
15833;SDS011;8017;50.812;4.934;2023-04-01T20:26:45;10.50;;;7.90;;
15833;SDS011;8017;50.812;4.934;2023-04-01T20:33:34;8.47;;;7.37;;
15833;SDS011;8017;50.812;4.934;2023-04-01T20:37:14;10.90;;;7.60;;
15833;SDS011;8017;50.812;4.934;2023-04-01T20:40:31;8.57;;;7.67;;
15833;SDS011;8017;50.812;4.934;2023-04-01T20:43:42;12.00;;;8.73;;
15833;SDS011;8017;50.812;4.934;2023-04-01T20:46:59;9.40;;;8.07;;
15833;SDS011;8017;50.812;4.934;2023-04-01T20:50:11;9.40;;;8.33;;
15833;SDS011;8017;50.812;4.934;2023-04-01T20:53:27;9.97;;;8.97;;
15833;SDS011;8017;50.812;4.934;2023-04-01T20:56:40;10.10;;;9.10;;
15833;SDS011;8017;50.812;4.934;2023-04-01T21:00:02;11.67;;;9.33;;
15833;SDS011;8017;50.812;4.934;2023-04-01T21:03:33;13.47;;;10.83;;
15833;SDS011;8017;50.812;4.934;2023-04-01T21:06:48;13.33;;;10.67;;
15833;SDS011;8017;50.812;4.934;2023-04-01T21:10:12;13.53;;;11.83;;
15833;SDS011;8017;50.812;4.934;2023-04-01T21:13:29;14.73;;;12.10;;
15833;SDS011;8017;50.812;4.934;2023-04-01T21:16:47;14.77;;;13.23;;